sensor_id;sensor_type;location;lat;lon;timestamp;pressure;altitude;pressure_sealevel;temperature;humidity
55604;BME280;41468;48.838;9.330;2022-12-11T00:00:24;97711.41;;;0.70;87.79
55604;BME280;41468;48.838;9.330;2022-12-11T00:02:51;97716.16;;;0.73;88.04
55604;BME280;41468;48.838;9.330;2022-12-11T00:05:18;97716.78;;;0.70;88.18
55604;BME280;41468;48.838;9.330;2022-12-11T00:07:45;97719.00;;;0.68;87.88
55604;BME280;41468;48.838;9.330;2022-12-11T00:10:11;97714.41;;;0.69;87.50
55604;BME280;41468;48.838;9.330;2022-12-11T00:12:38;97706.97;;;0.74;87.51
55604;BME280;41468;48.838;9.330;2022-12-11T00:15:05;97709.66;;;0.74;87.44
55604;BME280;41468;48.838;9.330;2022-12-11T00:17:32;97704.13;;;0.79;87.43
55604;BME280;41468;48.838;9.330;2022-12-11T00:19:59;97709.81;;;0.86;87.13
55604;BME280;41468;48.838;9.330;2022-12-11T00:22:26;97706.63;;;1.02;86.88
55604;BME280;41468;48.838;9.330;2022-12-11T00:24:54;97708.72;;;0.87;86.57
55604;BME280;41468;48.838;9.330;2022-12-11T00:27:21;97708.06;;;0.91;86.33
55604;BME280;41468;48.838;9.330;2022-12-11T00:29:48;97701.59;;;0.92;86.78
55604;BME280;41468;48.838;9.330;2022-12-11T00:32:14;97702.84;;;0.85;86.67
55604;BME280;41468;48.838;9.330;2022-12-11T00:34:41;97705.09;;;0.83;87.21
55604;BME280;41468;48.838;9.330;2022-12-11T00:37:08;97696.53;;;0.81;87.07
55604;BME280;41468;48.838;9.330;2022-12-11T00:39:36;97695.56;;;0.86;87.17
55604;BME280;41468;48.838;9.330;2022-12-11T00:42:03;97697.19;;;0.78;86.66
55604;BME280;41468;48.838;9.330;2022-12-11T00:44:29;97699.72;;;0.83;86.86
55604;BME280;41468;48.838;9.330;2022-12-11T00:46:56;97698.28;;;0.77;86.82
55604;BME280;41468;48.838;9.330;2022-12-11T00:49:25;97699.06;;;0.86;86.95
55604;BME280;41468;48.838;9.330;2022-12-11T00:51:54;97691.16;;;0.81;86.72
55604;BME280;41468;48.838;9.330;2022-12-11T00:54:25;97686.25;;;0.75;87.21
55604;BME280;41468;48.838;9.330;2022-12-11T00:56:54;97701.94;;;0.73;87.31
55604;BME280;41468;48.838;9.330;2022-12-11T00:59:21;97698.75;;;0.79;87.12
55604;BME280;41468;48.838;9.330;2022-12-11T01:01:48;97693.06;;;0.72;87.05
55604;BME280;41468;48.838;9.330;2022-12-11T01:04:14;97712.50;;;0.78;87.04
55604;BME280;41468;48.838;9.330;2022-12-11T01:06:53;97710.47;;;0.66;87.54
55604;BME280;41468;48.838;9.330;2022-12-11T01:09:20;97712.66;;;0.81;87.47
55604;BME280;41468;48.838;9.330;2022-12-11T01:12:05;97720.09;;;0.76;87.18
55604;BME280;41468;48.838;9.330;2022-12-11T01:14:32;97726.09;;;0.90;87.24
55604;BME280;41468;48.838;9.330;2022-12-11T01:16:58;97722.00;;;0.84;87.36
55604;BME280;41468;48.838;9.330;2022-12-11T01:19:25;97725.47;;;0.84;87.11
55604;BME280;41468;48.838;9.330;2022-12-11T01:21:52;97730.81;;;1.02;87.08
55604;BME280;41468;48.838;9.330;2022-12-11T01:24:18;97732.53;;;1.15;86.25
55604;BME280;41468;48.838;9.330;2022-12-11T01:26:45;97734.47;;;0.88;86.83
55604;BME280;41468;48.838;9.330;2022-12-11T01:29:12;97740.16;;;1.13;86.53
55604;BME280;41468;48.838;9.330;2022-12-11T01:31:38;97740.63;;;1.06;85.81
55604;BME280;41468;48.838;9.330;2022-12-11T01:34:05;97734.13;;;0.99;86.10
55604;BME280;41468;48.838;9.330;2022-12-11T01:36:37;97735.75;;;0.82;86.10
55604;BME280;41468;48.838;9.330;2022-12-11T01:39:04;97739.53;;;0.81;86.33
55604;BME280;41468;48.838;9.330;2022-12-11T01:41:31;97732.88;;;0.96;86.67
55604;BME280;41468;48.838;9.330;2022-12-11T01:44:04;97726.41;;;0.80;84.87
55604;BME280;41468;48.838;9.330;2022-12-11T01:46:34;97729.56;;;0.91;85.40
55604;BME280;41468;48.838;9.330;2022-12-11T01:49:03;97726.25;;;0.94;85.31
55604;BME280;41468;48.838;9.330;2022-12-11T01:51:37;97728.75;;;0.99;84.82
55604;BME280;41468;48.838;9.330;2022-12-11T01:54:08;97739.97;;;1.09;83.84
55604;BME280;41468;48.838;9.330;2022-12-11T01:56:38;97735.41;;;0.93;83.45
55604;BME280;41468;48.838;9.330;2022-12-11T01:59:07;97739.53;;;0.99;84.06
55604;BME280;41468;48.838;9.330;2022-12-11T02:01:47;97739.19;;;1.09;84.35
55604;BME280;41468;48.838;9.330;2022-12-11T02:04:17;97736.81;;;1.07;83.66
55604;BME280;41468;48.838;9.330;2022-12-11T02:06:47;97744.91;;;0.99;84.40
55604;BME280;41468;48.838;9.330;2022-12-11T02:09:30;97742.34;;;1.20;84.39
55604;BME280;41468;48.838;9.330;2022-12-11T02:12:10;97736.66;;;1.21;84.27
55604;BME280;41468;48.838;9.330;2022-12-11T02:17:28;97752.16;;;1.16;84.19
55604;BME280;41468;48.838;9.330;2022-12-11T02:25:45;97749.66;;;0.84;85.68
55604;BME280;41468;48.838;9.330;2022-12-11T02:28:31;97747.91;;;0.80;85.39
55604;BME280;41468;48.838;9.330;2022-12-11T02:31:03;97748.38;;;1.08;84.06
55604;BME280;41468;48.838;9.330;2022-12-11T02:33:42;97750.72;;;1.09;83.00
55604;BME280;41468;48.838;9.330;2022-12-11T02:36:10;97749.47;;;1.16;82.74
55604;BME280;41468;48.838;9.330;2022-12-11T02:38:40;97739.66;;;1.20;82.97
55604;BME280;41468;48.838;9.330;2022-12-11T02:41:10;97728.91;;;1.11;83.00
55604;BME280;41468;48.838;9.330;2022-12-11T02:43:38;97733.03;;;1.08;83.13
55604;BME280;41468;48.838;9.330;2022-12-11T02:46:06;97733.34;;;1.16;83.12
55604;BME280;41468;48.838;9.330;2022-12-11T02:48:35;97744.25;;;1.19;83.29
55604;BME280;41468;48.838;9.330;2022-12-11T02:51:04;97742.31;;;1.28;82.82
55604;BME280;41468;48.838;9.330;2022-12-11T02:53:34;97736.34;;;1.14;82.25
55604;BME280;41468;48.838;9.330;2022-12-11T02:56:19;97736.34;;;0.97;83.30
55604;BME280;41468;48.838;9.330;2022-12-11T02:58:50;97742.69;;;1.01;83.33
55604;BME280;41468;48.838;9.330;2022-12-11T03:01:24;97747.59;;;0.99;83.06
55604;BME280;41468;48.838;9.330;2022-12-11T03:03:53;97746.97;;;0.93;83.94
55604;BME280;41468;48.838;9.330;2022-12-11T03:06:23;97740.13;;;1.22;82.75
55604;BME280;41468;48.838;9.330;2022-12-11T03:08:52;97741.72;;;1.14;81.99
55604;BME280;41468;48.838;9.330;2022-12-11T03:11:19;97739.03;;;1.14;82.50
55604;BME280;41468;48.838;9.330;2022-12-11T03:13:46;97733.16;;;1.12;82.62
55604;BME280;41468;48.838;9.330;2022-12-11T03:19:15;97720.38;;;1.09;83.69
55604;BME280;41468;48.838;9.330;2022-12-11T03:29:41;97732.69;;;1.10;81.86
55604;BME280;41468;48.838;9.330;2022-12-11T03:32:19;97737.00;;;1.02;82.20
55604;BME280;41468;48.838;9.330;2022-12-11T03:35:15;97742.16;;;1.25;82.03
55604;BME280;41468;48.838;9.330;2022-12-11T03:37:44;97744.88;;;1.16;82.20
55604;BME280;41468;48.838;9.330;2022-12-11T03:40:15;97748.81;;;1.10;82.87
55604;BME280;41468;48.838;9.330;2022-12-11T03:42:44;97742.03;;;1.21;82.78
55604;BME280;41468;48.838;9.330;2022-12-11T03:45:13;97744.25;;;1.10;82.95
55604;BME280;41468;48.838;9.330;2022-12-11T03:47:43;97744.56;;;1.26;82.01
55604;BME280;41468;48.838;9.330;2022-12-11T03:50:12;97736.28;;;1.40;81.61
55604;BME280;41468;48.838;9.330;2022-12-11T03:52:44;97738.16;;;1.40;81.45
55604;BME280;41468;48.838;9.330;2022-12-11T03:55:13;97734.53;;;1.36;82.11
55604;BME280;41468;48.838;9.330;2022-12-11T03:57:41;97739.66;;;1.20;82.26
55604;BME280;41468;48.838;9.330;2022-12-11T04:00:13;97737.75;;;1.12;82.87
55604;BME280;41468;48.838;9.330;2022-12-11T04:02:41;97739.34;;;1.21;82.70
55604;BME280;41468;48.838;9.330;2022-12-11T04:05:14;97735.41;;;0.93;83.24
55604;BME280;41468;48.838;9.330;2022-12-11T04:07:46;97725.47;;;0.84;83.16
55604;BME280;41468;48.838;9.330;2022-12-11T04:10:12;97722.31;;;0.82;83.88
55604;BME280;41468;48.838;9.330;2022-12-11T04:12:39;97724.38;;;0.94;83.86
55604;BME280;41468;48.838;9.330;2022-12-11T04:15:06;97713.69;;;1.15;83.21
55604;BME280;41468;48.838;9.330;2022-12-11T04:17:35;97713.09;;;1.09;82.74
55604;BME280;41468;48.838;9.330;2022-12-11T04:20:20;97703.59;;;1.12;83.83
55604;BME280;41468;48.838;9.330;2022-12-11T04:23:11;97703.91;;;1.19;83.52
55604;BME280;41468;48.838;9.330;2022-12-11T04:26:07;97696.31;;;1.21;83.22
55604;BME280;41468;48.838;9.330;2022-12-11T04:28:34;97691.38;;;1.32;82.79
55604;BME280;41468;48.838;9.330;2022-12-11T04:31:02;97690.88;;;1.39;82.28
55604;BME280;41468;48.838;9.330;2022-12-11T04:33:29;97681.41;;;1.32;82.37
55604;BME280;41468;48.838;9.330;2022-12-11T04:35:57;97692.81;;;1.29;82.84
55604;BME280;41468;48.838;9.330;2022-12-11T04:38:25;97693.19;;;1.10;82.75
55604;BME280;41468;48.838;9.330;2022-12-11T04:41:07;97696.59;;;1.28;83.28
55604;BME280;41468;48.838;9.330;2022-12-11T04:43:34;97694.06;;;1.23;83.07
55604;BME280;41468;48.838;9.330;2022-12-11T04:46:12;97694.16;;;0.80;85.00
55604;BME280;41468;48.838;9.330;2022-12-11T04:48:40;97698.44;;;0.72;85.29
55604;BME280;41468;48.838;9.330;2022-12-11T04:51:07;97696.53;;;0.81;85.72
55604;BME280;41468;48.838;9.330;2022-12-11T04:53:35;97697.59;;;1.06;84.43
55604;BME280;41468;48.838;9.330;2022-12-11T04:56:07;97697.75;;;1.19;83.97
55604;BME280;41468;48.838;9.330;2022-12-11T04:58:34;97702.41;;;0.83;84.74
55604;BME280;41468;48.838;9.330;2022-12-11T05:01:19;97706.00;;;0.87;85.66
55604;BME280;41468;48.838;9.330;2022-12-11T05:03:46;97703.50;;;0.82;85.49
55604;BME280;41468;48.838;9.330;2022-12-11T05:06:13;97701.75;;;0.95;85.18
55604;BME280;41468;48.838;9.330;2022-12-11T05:08:41;97700.13;;;1.12;84.37
55604;BME280;41468;48.838;9.330;2022-12-11T05:11:10;97705.69;;;0.80;84.74
55604;BME280;41468;48.838;9.330;2022-12-11T05:13:37;97700.53;;;0.49;86.81
55604;BME280;41468;48.838;9.330;2022-12-11T05:16:05;97699.72;;;0.49;86.78
55604;BME280;41468;48.838;9.330;2022-12-11T05:18:32;97691.97;;;0.47;86.94
55604;BME280;41468;48.838;9.330;2022-12-11T05:21:01;97696.41;;;0.60;86.36
55604;BME280;41468;48.838;9.330;2022-12-11T05:23:29;97713.47;;;0.47;87.17
55604;BME280;41468;48.838;9.330;2022-12-11T05:25:58;97696.09;;;0.62;86.82
55604;BME280;41468;48.838;9.330;2022-12-11T05:28:27;97688.81;;;0.71;85.74
55604;BME280;41468;48.838;9.330;2022-12-11T05:30:55;97706.66;;;0.84;85.50
55604;BME280;41468;48.838;9.330;2022-12-11T05:33:23;97713.47;;;0.82;85.19
55604;BME280;41468;48.838;9.330;2022-12-11T05:35:50;97715.97;;;0.70;85.78
55604;BME280;41468;48.838;9.330;2022-12-11T05:38:17;97701.47;;;0.71;86.12
55604;BME280;41468;48.838;9.330;2022-12-11T05:40:44;97702.53;;;0.96;85.35
55604;BME280;41468;48.838;9.330;2022-12-11T05:43:10;97702.72;;;0.73;85.66
55604;BME280;41468;48.838;9.330;2022-12-11T05:45:37;97696.53;;;0.64;86.22
55604;BME280;41468;48.838;9.330;2022-12-11T05:48:04;97697.66;;;0.63;85.86
55604;BME280;41468;48.838;9.330;2022-12-11T05:50:41;97692.41;;;0.93;85.22
55604;BME280;41468;48.838;9.330;2022-12-11T05:53:08;97697.66;;;0.89;84.22
55604;BME280;41468;48.838;9.330;2022-12-11T05:55:35;97690.38;;;0.63;85.03
55604;BME280;41468;48.838;9.330;2022-12-11T05:58:02;97691.34;;;0.59;86.30
55604;BME280;41468;48.838;9.330;2022-12-11T06:00:28;97681.72;;;0.49;86.77
55604;BME280;41468;48.838;9.330;2022-12-11T06:03:01;97685.03;;;0.46;87.29
55604;BME280;41468;48.838;9.330;2022-12-11T06:05:28;97679.00;;;0.32;87.90
55604;BME280;41468;48.838;9.330;2022-12-11T06:07:54;97677.75;;;0.47;87.30
55604;BME280;41468;48.838;9.330;2022-12-11T06:10:21;97678.72;;;0.59;86.70
55604;BME280;41468;48.838;9.330;2022-12-11T06:12:48;97682.97;;;0.60;87.16
55604;BME280;41468;48.838;9.330;2022-12-11T06:15:15;97682.97;;;0.69;86.50
55604;BME280;41468;48.838;9.330;2022-12-11T06:17:41;97675.22;;;0.59;86.49
55604;BME280;41468;48.838;9.330;2022-12-11T06:20:08;97677.44;;;0.31;87.48
55604;BME280;41468;48.838;9.330;2022-12-11T06:22:35;97672.06;;;0.31;88.02
55604;BME280;41468;48.838;9.330;2022-12-11T06:25:02;97667.16;;;0.24;88.27
55604;BME280;41468;48.838;9.330;2022-12-11T06:27:29;97667.03;;;0.38;87.96
55604;BME280;41468;48.838;9.330;2022-12-11T06:29:55;97666.53;;;0.44;86.85
55604;BME280;41468;48.838;9.330;2022-12-11T06:32:22;97666.53;;;0.62;86.27
55604;BME280;41468;48.838;9.330;2022-12-11T06:34:49;97662.59;;;0.42;86.70
55604;BME280;41468;48.838;9.330;2022-12-11T06:37:15;97659.13;;;0.41;87.11
55604;BME280;41468;48.838;9.330;2022-12-11T06:39:42;97664.31;;;0.29;87.09
55604;BME280;41468;48.838;9.330;2022-12-11T06:42:09;97661.50;;;0.26;86.89
55604;BME280;41468;48.838;9.330;2022-12-11T06:44:35;97661.47;;;0.34;86.47
55604;BME280;41468;48.838;9.330;2022-12-11T06:47:02;97658.81;;;0.26;86.39
55604;BME280;41468;48.838;9.330;2022-12-11T06:49:29;97659.59;;;0.17;86.57
55604;BME280;41468;48.838;9.330;2022-12-11T06:51:56;97659.59;;;0.09;87.09
55604;BME280;41468;48.838;9.330;2022-12-11T06:54:26;97665.28;;;0.25;86.83
55604;BME280;41468;48.838;9.330;2022-12-11T06:56:53;97672.53;;;0.15;86.91
55604;BME280;41468;48.838;9.330;2022-12-11T06:59:20;97672.03;;;0.05;87.69
55604;BME280;41468;48.838;9.330;2022-12-11T07:01:47;97671.75;;;0.15;88.14
55604;BME280;41468;48.838;9.330;2022-12-11T07:04:14;97678.84;;;0.11;88.27
55604;BME280;41468;48.838;9.330;2022-12-11T07:06:40;97677.91;;;0.07;88.30
55604;BME280;41468;48.838;9.330;2022-12-11T07:09:07;97682.00;;;0.04;88.86
55604;BME280;41468;48.838;9.330;2022-12-11T07:11:34;97681.50;;;0.11;88.57
55604;BME280;41468;48.838;9.330;2022-12-11T07:14:01;97693.53;;;0.13;88.26
55604;BME280;41468;48.838;9.330;2022-12-11T07:16:27;97689.75;;;0.06;88.20
55604;BME280;41468;48.838;9.330;2022-12-11T07:18:54;97705.22;;;0.17;88.03
55604;BME280;41468;48.838;9.330;2022-12-11T07:21:21;97694.97;;;0.28;87.92
55604;BME280;41468;48.838;9.330;2022-12-11T07:23:49;97700.19;;;0.33;87.83
55604;BME280;41468;48.838;9.330;2022-12-11T07:26:18;97692.44;;;0.23;88.49
55604;BME280;41468;48.838;9.330;2022-12-11T07:28:45;97694.81;;;0.33;88.36
55604;BME280;41468;48.838;9.330;2022-12-11T07:31:15;97693.41;;;0.27;88.53
55604;BME280;41468;48.838;9.330;2022-12-11T07:33:42;97698.94;;;0.22;89.32
55604;BME280;41468;48.838;9.330;2022-12-11T07:36:11;97705.09;;;0.31;89.18
55604;BME280;41468;48.838;9.330;2022-12-11T07:38:38;97701.59;;;0.39;88.84
55604;BME280;41468;48.838;9.330;2022-12-11T07:41:09;97697.19;;;0.26;89.67
55604;BME280;41468;48.838;9.330;2022-12-11T07:43:36;97695.47;;;0.30;89.61
55604;BME280;41468;48.838;9.330;2022-12-11T07:46:09;97702.53;;;0.26;90.25
55604;BME280;41468;48.838;9.330;2022-12-11T07:48:38;97694.50;;;0.26;90.51
55604;BME280;41468;48.838;9.330;2022-12-11T07:51:21;97705.56;;;0.33;90.40
55604;BME280;41468;48.838;9.330;2022-12-11T07:53:51;97706.03;;;0.35;90.15
55604;BME280;41468;48.838;9.330;2022-12-11T07:56:18;97707.75;;;0.31;90.23
55604;BME280;41468;48.838;9.330;2022-12-11T07:58:45;97706.81;;;0.44;89.70
55604;BME280;41468;48.838;9.330;2022-12-11T08:01:17;97700.66;;;0.53;89.11
55604;BME280;41468;48.838;9.330;2022-12-11T08:03:44;97708.41;;;0.72;89.71
55604;BME280;41468;48.838;9.330;2022-12-11T08:06:12;97698.31;;;0.51;89.46
55604;BME280;41468;48.838;9.330;2022-12-11T08:08:39;97696.56;;;0.55;89.29
55604;BME280;41468;48.838;9.330;2022-12-11T08:11:12;97699.09;;;0.52;89.53
55604;BME280;41468;48.838;9.330;2022-12-11T08:13:39;97694.81;;;0.68;89.56
55604;BME280;41468;48.838;9.330;2022-12-11T08:16:07;97694.81;;;0.77;88.62
55604;BME280;41468;48.838;9.330;2022-12-11T08:18:35;97697.66;;;0.89;88.04
55604;BME280;41468;48.838;9.330;2022-12-11T08:21:10;97701.28;;;0.67;88.62
55604;BME280;41468;48.838;9.330;2022-12-11T08:23:37;97696.38;;;0.69;88.76
55604;BME280;41468;48.838;9.330;2022-12-11T08:26:05;97690.72;;;0.71;89.49
55604;BME280;41468;48.838;9.330;2022-12-11T08:28:32;97697.94;;;0.87;88.67
55604;BME280;41468;48.838;9.330;2022-12-11T08:30:59;97696.22;;;0.74;89.45
55604;BME280;41468;48.838;9.330;2022-12-11T08:33:34;97693.69;;;0.78;89.22
55604;BME280;41468;48.838;9.330;2022-12-11T08:36:03;97702.25;;;0.71;89.47
55604;BME280;41468;48.838;9.330;2022-12-11T08:38:29;97699.22;;;0.64;90.37
55604;BME280;41468;48.838;9.330;2022-12-11T08:40:56;97704.94;;;0.62;90.08
55604;BME280;41468;48.838;9.330;2022-12-11T08:43:23;97702.25;;;0.62;90.87
55604;BME280;41468;48.838;9.330;2022-12-11T08:45:50;97697.03;;;0.57;91.02
55604;BME280;41468;48.838;9.330;2022-12-11T08:48:16;97701.63;;;0.57;90.99
55604;BME280;41468;48.838;9.330;2022-12-11T08:50:43;97701.44;;;0.53;91.09
55604;BME280;41468;48.838;9.330;2022-12-11T08:53:10;97703.19;;;0.58;91.05
55604;BME280;41468;48.838;9.330;2022-12-11T08:55:36;97710.31;;;0.71;91.04
55604;BME280;41468;48.838;9.330;2022-12-11T08:58:03;97692.28;;;0.63;90.22
55604;BME280;41468;48.838;9.330;2022-12-11T09:00:30;97699.72;;;0.83;90.25
55604;BME280;41468;48.838;9.330;2022-12-11T09:02:56;97697.00;;;0.92;89.09
55604;BME280;41468;48.838;9.330;2022-12-11T09:05:23;97691.50;;;0.71;90.13
55604;BME280;41468;48.838;9.330;2022-12-11T09:07:50;97692.25;;;0.80;89.99
55604;BME280;41468;48.838;9.330;2022-12-11T09:10:16;97695.94;;;0.76;88.75
55604;BME280;41468;48.838;9.330;2022-12-11T09:12:43;97689.75;;;0.75;89.50
55604;BME280;41468;48.838;9.330;2022-12-11T09:15:10;97696.72;;;0.76;89.65
55604;BME280;41468;48.838;9.330;2022-12-11T09:17:37;97696.38;;;0.78;89.86
55604;BME280;41468;48.838;9.330;2022-12-11T09:20:05;97699.84;;;0.96;89.63
55604;BME280;41468;48.838;9.330;2022-12-11T09:22:32;97693.78;;;1.07;88.22
55604;BME280;41468;48.838;9.330;2022-12-11T09:24:59;97693.44;;;1.26;87.62
55604;BME280;41468;48.838;9.330;2022-12-11T09:27:26;97692.38;;;1.10;87.88
55604;BME280;41468;48.838;9.330;2022-12-11T09:29:52;97694.78;;;0.94;88.84
55604;BME280;41468;48.838;9.330;2022-12-11T09:32:19;97688.59;;;1.11;88.12
55604;BME280;41468;48.838;9.330;2022-12-11T09:34:49;97684.63;;;1.08;87.84
55604;BME280;41468;48.838;9.330;2022-12-11T09:37:16;97689.50;;;1.24;87.92
55604;BME280;41468;48.838;9.330;2022-12-11T09:39:42;97696.47;;;1.07;87.75
55604;BME280;41468;48.838;9.330;2022-12-11T09:44:56;97680.75;;;1.36;86.89
55604;BME280;41468;48.838;9.330;2022-12-11T09:47:46;97680.13;;;1.30;87.21
55604;BME280;41468;48.838;9.330;2022-12-11T09:50:31;97679.81;;;1.31;87.58
55604;BME280;41468;48.838;9.330;2022-12-11T09:53:04;97677.28;;;1.35;86.34
55604;BME280;41468;48.838;9.330;2022-12-11T09:55:59;97683.00;;;1.25;87.27
55604;BME280;41468;48.838;9.330;2022-12-11T09:58:49;97677.94;;;1.32;87.75
55604;BME280;41468;48.838;9.330;2022-12-11T10:07:10;97673.00;;;1.34;87.09
55604;BME280;41468;48.838;9.330;2022-12-11T10:15:18;97675.06;;;1.37;87.53
55604;BME280;41468;48.838;9.330;2022-12-11T10:17:49;97663.53;;;2.17;94.35
55604;BME280;41468;48.838;9.330;2022-12-11T10:22:47;97663.66;;;1.40;83.09
55604;BME280;41468;48.838;9.330;2022-12-11T10:25:24;97655.06;;;1.47;84.48
55604;BME280;41468;48.838;9.330;2022-12-11T10:27:53;97655.88;;;1.39;86.38
55604;BME280;41468;48.838;9.330;2022-12-11T10:30:32;97650.34;;;1.44;85.35
55604;BME280;41468;48.838;9.330;2022-12-11T10:33:21;97651.72;;;1.50;85.08
55604;BME280;41468;48.838;9.330;2022-12-11T10:35:51;97644.53;;;1.63;84.87
55604;BME280;41468;48.838;9.330;2022-12-11T10:38:28;97640.72;;;1.64;84.53
55604;BME280;41468;48.838;9.330;2022-12-11T10:41:04;97634.44;;;1.60;85.33
55604;BME280;41468;48.838;9.330;2022-12-11T10:43:43;97633.31;;;1.61;84.92
55604;BME280;41468;48.838;9.330;2022-12-11T10:46:15;97643.75;;;1.62;85.08
55604;BME280;41468;48.838;9.330;2022-12-11T10:48:47;97630.78;;;1.64;84.89
55604;BME280;41468;48.838;9.330;2022-12-11T10:51:15;97634.06;;;1.70;83.41
55604;BME280;41468;48.838;9.330;2022-12-11T10:53:43;97626.97;;;1.65;84.35
55604;BME280;41468;48.838;9.330;2022-12-11T10:56:14;97631.94;;;1.54;83.37
55604;BME280;41468;48.838;9.330;2022-12-11T10:58:48;97623.25;;;1.49;85.11
55604;BME280;41468;48.838;9.330;2022-12-11T11:01:19;97623.66;;;1.60;84.46
55604;BME280;41468;48.838;9.330;2022-12-11T11:04:13;97621.69;;;1.77;84.27
55604;BME280;41468;48.838;9.330;2022-12-11T11:06:40;97616.84;;;1.62;83.15
55604;BME280;41468;48.838;9.330;2022-12-11T11:09:33;97612.38;;;1.66;84.38
55604;BME280;41468;48.838;9.330;2022-12-11T11:12:01;97613.59;;;1.77;84.12
55604;BME280;41468;48.838;9.330;2022-12-11T11:14:33;97608.41;;;1.72;81.80
55604;BME280;41468;48.838;9.330;2022-12-11T11:17:00;97613.22;;;1.58;80.73
55604;BME280;41468;48.838;9.330;2022-12-11T11:19:32;97612.56;;;1.61;80.89
55604;BME280;41468;48.838;9.330;2022-12-11T11:22:03;97614.25;;;1.45;82.87
55604;BME280;41468;48.838;9.330;2022-12-11T11:29:52;97601.50;;;1.63;82.24
55604;BME280;41468;48.838;9.330;2022-12-11T11:32:22;97591.34;;;1.39;81.34
55604;BME280;41468;48.838;9.330;2022-12-11T11:34:52;97592.41;;;1.46;82.12
55604;BME280;41468;48.838;9.330;2022-12-11T11:37:32;97592.72;;;1.45;80.94
55604;BME280;41468;48.838;9.330;2022-12-11T11:40:12;97595.59;;;1.69;82.72
55604;BME280;41468;48.838;9.330;2022-12-11T11:43:05;97594.00;;;1.68;80.30
55604;BME280;41468;48.838;9.330;2022-12-11T11:45:43;97591.41;;;1.81;81.96
55604;BME280;41468;48.838;9.330;2022-12-11T11:50:51;97582.59;;;1.71;80.20
55604;BME280;41468;48.838;9.330;2022-12-11T11:53:26;97579.25;;;1.74;81.71
55604;BME280;41468;48.838;9.330;2022-12-11T11:59:11;97577.16;;;2.01;80.66
55604;BME280;41468;48.838;9.330;2022-12-11T12:01:41;97572.78;;;1.96;80.88
55604;BME280;41468;48.838;9.330;2022-12-11T12:04:09;97581.69;;;2.09;79.71
55604;BME280;41468;48.838;9.330;2022-12-11T12:06:56;97581.28;;;1.98;80.84
55604;BME280;41468;48.838;9.330;2022-12-11T12:09:31;97584.31;;;1.97;80.08
55604;BME280;41468;48.838;9.330;2022-12-11T12:18:14;97577.22;;;2.13;80.40
55604;BME280;41468;48.838;9.330;2022-12-11T12:20:52;97578.97;;;2.09;79.22
55604;BME280;41468;48.838;9.330;2022-12-11T12:34:45;97581.44;;;2.02;81.90
55604;BME280;41468;48.838;9.330;2022-12-11T12:40:31;97566.19;;;2.06;81.54
55604;BME280;41468;48.838;9.330;2022-12-11T12:44:12;97568.09;;;2.06;81.17
55604;BME280;41468;48.838;9.330;2022-12-11T12:46:19;97558.72;;;1.91;81.87
55604;BME280;41468;48.838;9.330;2022-12-11T12:48:49;97553.47;;;1.94;81.05
55604;BME280;41468;48.838;9.330;2022-12-11T12:51:17;97550.84;;;1.86;81.37
55604;BME280;41468;48.838;9.330;2022-12-11T12:53:53;97555.81;;;1.96;80.46
55604;BME280;41468;48.838;9.330;2022-12-11T12:56:21;97551.88;;;1.93;81.18
55604;BME280;41468;48.838;9.330;2022-12-11T12:58:49;97546.81;;;1.92;82.03
55604;BME280;41468;48.838;9.330;2022-12-11T13:01:21;97552.00;;;1.76;82.63
55604;BME280;41468;48.838;9.330;2022-12-11T13:04:03;97552.00;;;1.76;83.01
55604;BME280;41468;48.838;9.330;2022-12-11T13:06:42;97548.91;;;1.65;82.75
55604;BME280;41468;48.838;9.330;2022-12-11T13:09:14;97549.25;;;1.64;82.69
55604;BME280;41468;48.838;9.330;2022-12-11T13:11:42;97550.28;;;1.71;82.51
55604;BME280;41468;48.838;9.330;2022-12-11T13:16:45;97558.69;;;1.49;83.49
55604;BME280;41468;48.838;9.330;2022-12-11T13:27:36;97547.19;;;4.08;100.00
55604;BME280;41468;48.838;9.330;2022-12-11T13:32:56;97555.75;;;2.38;79.12
55604;BME280;41468;48.838;9.330;2022-12-11T13:35:25;97566.66;;;2.08;80.97
55604;BME280;41468;48.838;9.330;2022-12-11T13:37:53;97567.13;;;1.89;80.91
55604;BME280;41468;48.838;9.330;2022-12-11T13:40:25;97573.22;;;1.77;82.30
55604;BME280;41468;48.838;9.330;2022-12-11T13:42:55;97572.81;;;1.67;80.61
55604;BME280;41468;48.838;9.330;2022-12-11T13:45:43;97582.97;;;1.61;81.67
55604;BME280;41468;48.838;9.330;2022-12-11T13:48:20;97567.19;;;1.81;82.87
55604;BME280;41468;48.838;9.330;2022-12-11T13:50:50;97570.50;;;1.98;81.56
55604;BME280;41468;48.838;9.330;2022-12-11T13:53:19;97564.16;;;1.82;80.62
55604;BME280;41468;48.838;9.330;2022-12-11T13:55:55;97564.16;;;1.82;79.76
55604;BME280;41468;48.838;9.330;2022-12-11T13:58:23;97573.22;;;1.77;80.67
55604;BME280;41468;48.838;9.330;2022-12-11T14:03:23;97576.91;;;1.73;81.73
55604;BME280;41468;48.838;9.330;2022-12-11T14:05:50;97578.16;;;1.75;82.15
55604;BME280;41468;48.838;9.330;2022-12-11T14:08:21;97578.22;;;1.67;81.50
55604;BME280;41468;48.838;9.330;2022-12-11T14:10:52;97580.69;;;1.72;81.27
55604;BME280;41468;48.838;9.330;2022-12-11T14:13:23;97576.56;;;1.53;82.18
55604;BME280;41468;48.838;9.330;2022-12-11T14:15:51;97573.78;;;1.62;82.06
55604;BME280;41468;48.838;9.330;2022-12-11T14:18:24;97576.81;;;1.61;81.83
55604;BME280;41468;48.838;9.330;2022-12-11T14:20:53;97576.91;;;1.43;83.18
55604;BME280;41468;48.838;9.330;2022-12-11T14:23:23;97574.16;;;1.52;82.79
55604;BME280;41468;48.838;9.330;2022-12-11T14:25:56;97564.72;;;1.46;81.64
55604;BME280;41468;48.838;9.330;2022-12-11T14:28:24;97571.47;;;1.52;80.97
55604;BME280;41468;48.838;9.330;2022-12-11T14:30:58;97580.09;;;1.66;81.38
55604;BME280;41468;48.838;9.330;2022-12-11T14:36:28;97576.75;;;1.40;81.48
55604;BME280;41468;48.838;9.330;2022-12-11T14:39:01;97587.91;;;1.29;82.41
55604;BME280;41468;48.838;9.330;2022-12-11T14:41:35;97589.31;;;1.36;81.96
55604;BME280;41468;48.838;9.330;2022-12-11T14:44:06;97591.25;;;1.26;82.84
55604;BME280;41468;48.838;9.330;2022-12-11T14:49:28;97605.97;;;1.20;83.05
55604;BME280;41468;48.838;9.330;2022-12-11T14:51:58;97590.25;;;1.31;82.67
55604;BME280;41468;48.838;9.330;2022-12-11T14:54:36;97596.50;;;1.14;83.13
55604;BME280;41468;48.838;9.330;2022-12-11T14:57:05;97598.03;;;1.32;83.53